createdAt,value
2023-09-13T00:01:39.552Z,7.53
2023-09-13T00:04:42.025Z,7.20
2023-09-13T00:07:44.495Z,7.38
2023-09-13T00:10:46.982Z,7.55
2023-09-13T00:13:49.428Z,7.70
2023-09-13T00:16:52.020Z,7.50
2023-09-13T00:19:57.570Z,7.43
2023-09-13T00:22:59.998Z,7.82
2023-09-13T00:26:04.211Z,6.82
2023-09-13T00:29:07.953Z,6.67
2023-09-13T00:32:10.331Z,7.70
2023-09-13T00:35:12.701Z,8.48
2023-09-13T00:38:15.070Z,7.68
2023-09-13T00:41:17.536Z,7.50
2023-09-13T00:44:19.968Z,8.80
2023-09-13T00:47:22.651Z,7.55
2023-09-13T00:50:25.156Z,8.27
2023-09-13T00:53:27.928Z,8.25
2023-09-13T00:56:30.364Z,8.43
2023-09-13T00:59:32.760Z,7.77
2023-09-13T01:02:35.233Z,7.90
2023-09-13T01:05:37.680Z,8.70
2023-09-13T01:08:42.801Z,8.15
2023-09-13T01:11:46.162Z,7.30
2023-09-13T01:14:48.560Z,7.90
2023-09-13T01:18:12.649Z,7.65
2023-09-13T01:21:33.728Z,8.07
2023-09-13T01:25:03.145Z,7.63
2023-09-13T01:28:37.218Z,7.57
2023-09-13T01:31:39.672Z,7.83
2023-09-13T01:34:42.050Z,7.10
2023-09-13T01:37:44.478Z,7.97
2023-09-13T01:40:46.991Z,8.30
2023-09-13T01:43:51.926Z,8.00
2023-09-13T01:46:54.500Z,7.40
2023-09-13T01:49:57.273Z,7.85
2023-09-13T01:53:03.006Z,8.32
2023-09-13T01:56:05.394Z,8.38
2023-09-13T01:59:07.822Z,7.75
2023-09-13T02:02:10.345Z,7.60
2023-09-13T02:05:12.794Z,7.95
2023-09-13T02:08:15.207Z,7.97
2023-09-13T02:11:17.586Z,7.95
2023-09-13T02:14:19.998Z,8.40
2023-09-13T02:17:22.445Z,7.63
2023-09-13T02:20:24.854Z,8.00
2023-09-13T02:23:28.364Z,7.75
2023-09-13T02:26:32.375Z,7.90
2023-09-13T02:29:35.069Z,7.03
2023-09-13T02:32:37.763Z,7.80
2023-09-13T02:35:40.328Z,7.65
2023-09-13T02:38:42.829Z,7.78
2023-09-13T02:41:45.274Z,7.88
2023-09-13T02:44:47.751Z,7.95
2023-09-13T02:47:50.186Z,7.80
2023-09-13T02:50:53.097Z,8.20
2023-09-13T02:53:55.544Z,8.32
2023-09-13T02:56:58.004Z,7.65
2023-09-13T03:00:07.081Z,8.23
2023-09-13T03:03:14.180Z,8.07
2023-09-13T03:06:17.038Z,8.35
2023-09-13T03:09:20.223Z,8.18
2023-09-13T03:12:22.693Z,7.88
2023-09-13T03:15:26.448Z,8.80
2023-09-13T03:18:28.976Z,8.03
2023-09-13T03:21:31.514Z,7.55
2023-09-13T03:24:34.116Z,8.32
2023-09-13T03:27:36.964Z,7.88
2023-09-13T03:30:39.709Z,7.68
2023-09-13T03:33:42.455Z,7.70
2023-09-13T03:36:45.496Z,7.95
2023-09-13T03:39:48.067Z,9.30
2023-09-13T03:42:50.983Z,7.68
2023-09-13T03:45:53.750Z,8.02
2023-09-13T03:48:56.474Z,8.60
2023-09-13T03:51:58.991Z,8.27
2023-09-13T03:55:01.526Z,8.52
2023-09-13T03:58:04.409Z,8.48
2023-09-13T04:01:07.732Z,8.88
2023-09-13T04:04:10.420Z,8.30
2023-09-13T04:07:13.006Z,8.35
2023-09-13T04:10:15.510Z,8.43
2023-09-13T04:13:18.375Z,7.50
2023-09-13T04:16:21.161Z,7.38
2023-09-13T04:19:23.710Z,7.47
2023-09-13T04:22:26.319Z,8.18
2023-09-13T04:25:29.898Z,7.85
2023-09-13T04:28:34.740Z,8.07
2023-09-13T04:31:38.987Z,8.40
2023-09-13T04:34:41.622Z,7.57
2023-09-13T04:37:44.471Z,7.70
2023-09-13T04:40:47.256Z,8.35
2023-09-13T04:43:50.132Z,8.90
2023-09-13T04:46:55.350Z,9.07
2023-09-13T04:49:57.969Z,8.50
2023-09-13T04:53:00.350Z,8.68
2023-09-13T04:56:04.075Z,7.93
2023-09-13T04:59:12.334Z,7.25
2023-09-13T05:02:15.931Z,8.23
2023-09-13T05:05:19.955Z,8.30
2023-09-13T05:08:22.355Z,8.15
2023-09-13T05:11:24.849Z,8.13
2023-09-13T05:14:27.416Z,8.65
2023-09-13T05:17:31.419Z,7.90
2023-09-13T05:20:34.215Z,8.63
2023-09-13T05:23:36.586Z,8.38
2023-09-13T05:26:39.107Z,8.60
2023-09-13T05:29:41.554Z,8.23
2023-09-13T05:32:43.975Z,8.40
2023-09-13T05:35:46.391Z,8.87
2023-09-13T05:38:49.970Z,9.05
2023-09-13T05:41:54.963Z,9.98
2023-09-13T05:44:57.380Z,10.35
2023-09-13T05:48:01.070Z,10.32
2023-09-13T05:51:03.799Z,9.83
2023-09-13T05:54:06.347Z,9.43
2023-09-13T05:57:08.726Z,10.07
2023-09-13T06:00:12.427Z,9.50
2023-09-13T06:03:16.920Z,9.55
2023-09-13T06:06:19.481Z,9.37
2023-09-13T06:09:23.334Z,9.98
2023-09-13T06:12:25.933Z,9.70
2023-09-13T06:15:28.517Z,10.85
2023-09-13T06:18:30.941Z,14.15
2023-09-13T06:21:33.915Z,10.57
2023-09-13T06:24:36.811Z,10.35
2023-09-13T06:27:39.249Z,11.90
2023-09-13T06:30:56.946Z,9.95
2023-09-13T07:45:03.852Z,5.00
2023-09-13T07:48:06.590Z,5.22
2023-09-13T07:51:09.155Z,5.85
2023-09-13T07:54:11.978Z,5.77
2023-09-13T07:57:14.673Z,5.55
2023-09-13T08:00:17.311Z,5.15
2023-09-13T08:03:19.720Z,5.07
2023-09-13T08:06:23.672Z,5.55
2023-09-13T08:09:26.521Z,4.90
2023-09-13T08:12:28.877Z,5.03
2023-09-13T08:15:43.315Z,5.07
2023-09-13T08:18:51.730Z,4.35
2023-09-13T08:21:54.122Z,5.25
2023-09-13T08:24:56.507Z,4.60
2023-09-13T08:27:58.896Z,4.55
2023-09-13T08:31:02.502Z,5.00
2023-09-13T08:34:05.002Z,5.07
2023-09-13T08:37:07.426Z,4.85
2023-09-13T08:40:11.312Z,5.37
2023-09-13T08:43:13.824Z,4.70
2023-09-13T08:46:16.350Z,5.20
2023-09-13T08:49:18.774Z,4.45
2023-09-13T08:52:21.506Z,5.07
2023-09-13T08:55:24.219Z,4.37
2023-09-13T08:58:27.078Z,4.80
2023-09-13T09:01:29.648Z,5.20
2023-09-13T09:04:32.144Z,4.72
2023-09-13T09:07:34.615Z,4.78
2023-09-13T09:10:37.170Z,4.87
2023-09-13T09:13:40.188Z,4.68
2023-09-13T09:16:44.304Z,4.85
2023-09-13T09:19:46.931Z,4.35
2023-09-13T09:22:49.462Z,4.50
2023-09-13T09:25:52.532Z,5.00
2023-09-13T09:28:55.777Z,5.32
2023-09-13T09:31:59.559Z,5.07
2023-09-13T09:42:17.952Z,5.03
2023-09-13T09:45:21.018Z,4.78
2023-09-13T09:48:23.695Z,4.88
2023-09-13T09:51:26.107Z,5.05
2023-09-13T09:54:28.506Z,4.88
2023-09-13T09:57:31.216Z,4.47
2023-09-13T10:00:47.755Z,4.90
2023-09-13T10:03:52.265Z,5.57
2023-09-13T10:07:07.803Z,4.55
2023-09-13T10:10:12.991Z,4.40
2023-09-13T10:13:15.987Z,4.40
2023-09-13T10:16:18.859Z,4.78
2023-09-13T10:19:21.350Z,5.10
2023-09-13T10:22:26.690Z,4.47
2023-09-13T10:25:31.340Z,4.85
2023-09-13T10:28:36.276Z,4.20
2023-09-13T10:31:42.757Z,4.15
2023-09-13T10:34:50.798Z,4.75
2023-09-13T10:37:53.814Z,4.90
2023-09-13T10:41:06.913Z,4.55
2023-09-13T10:44:10.488Z,4.17
2023-09-13T10:47:13.138Z,4.53
2023-09-13T10:50:16.356Z,4.32
2023-09-13T10:53:18.963Z,4.07
2023-09-13T10:56:21.382Z,4.25
2023-09-13T10:59:23.896Z,4.63
2023-09-13T11:02:27.586Z,4.88
2023-09-13T11:05:30.045Z,4.25
2023-09-13T11:08:36.602Z,4.55
2023-09-13T11:11:39.089Z,4.43
2023-09-13T11:14:48.337Z,4.33
2023-09-13T11:18:11.681Z,4.80
2023-09-13T11:21:26.489Z,4.50
2023-09-13T11:24:55.757Z,4.60
2023-09-13T11:28:06.274Z,4.57
2023-09-13T11:31:09.626Z,4.97
2023-09-13T11:34:13.532Z,5.05
2023-09-13T11:37:16.001Z,4.80
2023-09-13T11:40:18.560Z,4.68
2023-09-13T11:43:33.734Z,4.50
2023-09-13T11:46:37.805Z,4.80
2023-09-13T11:49:43.524Z,5.20
2023-09-13T11:53:14.746Z,5.10
2023-09-13T11:59:43.217Z,5.50
2023-09-13T12:02:46.499Z,5.00
2023-09-13T12:06:07.568Z,5.05
2023-09-13T12:09:20.319Z,4.90
2023-09-13T12:12:33.823Z,5.25
2023-09-13T12:19:11.964Z,5.27
2023-09-13T12:22:15.715Z,5.20
2023-09-13T12:25:18.444Z,5.03
2023-09-13T12:28:28.078Z,5.55
2023-09-13T12:31:30.624Z,4.97
2023-09-13T12:34:33.089Z,4.97
2023-09-13T12:37:35.556Z,4.93
2023-09-13T12:40:38.115Z,5.13
2023-09-13T12:43:43.732Z,5.20
2023-09-13T12:46:46.383Z,5.28
2023-09-13T12:49:51.372Z,5.63
2023-09-13T12:52:53.982Z,5.35
2023-09-13T12:55:56.439Z,5.50
2023-09-13T12:58:59.136Z,5.72
2023-09-13T13:02:01.616Z,6.88
2023-09-13T13:05:04.776Z,5.17
2023-09-13T13:08:07.622Z,5.45
2023-09-13T13:11:10.947Z,5.45
2023-09-13T13:14:18.600Z,5.25
2023-09-13T13:17:23.692Z,5.38
2023-09-13T13:20:27.924Z,5.67
2023-09-13T13:23:30.458Z,5.93
2023-09-13T13:26:32.843Z,5.40
2023-09-13T13:29:36.329Z,5.50
2023-09-13T13:32:39.682Z,5.65
2023-09-13T13:35:42.104Z,5.73
2023-09-13T13:38:44.463Z,5.30
2023-09-13T13:41:46.875Z,5.60
2023-09-13T13:44:49.316Z,5.22
2023-09-13T13:47:51.691Z,5.90
2023-09-13T13:50:54.122Z,6.43
2023-09-13T13:53:56.510Z,6.43
2023-09-13T13:57:00.988Z,6.90
2023-09-13T14:00:03.638Z,5.95
2023-09-13T14:03:14.705Z,6.60
2023-09-13T14:06:17.182Z,5.80
2023-09-13T14:09:19.623Z,6.28
2023-09-13T14:12:22.066Z,6.55
2023-09-13T14:15:24.489Z,6.72
2023-09-13T14:18:27.064Z,7.03
2023-09-13T14:21:29.571Z,6.50
2023-09-13T14:24:32.042Z,6.85
2023-09-13T14:27:44.521Z,7.00
2023-09-13T14:30:59.747Z,7.18
2023-09-13T14:34:03.962Z,7.50
2023-09-13T14:37:09.574Z,6.57
2023-09-13T14:40:11.978Z,7.47
2023-09-13T14:43:14.387Z,7.25
2023-09-13T14:46:17.091Z,6.90
2023-09-13T14:49:21.509Z,7.40
2023-09-13T14:52:25.292Z,7.40
2023-09-13T14:55:27.780Z,7.68
2023-09-13T14:58:30.178Z,7.75
2023-09-13T15:01:32.654Z,7.80
2023-09-13T15:04:35.048Z,7.70
2023-09-13T15:07:38.208Z,8.33
2023-09-13T15:10:40.867Z,7.10
2023-09-13T15:13:44.423Z,7.63
2023-09-13T15:16:46.901Z,7.70
2023-09-13T15:19:49.325Z,7.78
2023-09-13T15:22:51.739Z,7.50
2023-09-13T15:25:54.119Z,7.78
2023-09-13T15:28:58.215Z,8.07
2023-09-13T15:35:06.485Z,7.70
2023-09-13T15:38:09.352Z,7.70
2023-09-13T15:41:18.201Z,7.82
2023-09-13T15:44:20.717Z,7.50
2023-09-13T15:47:23.676Z,6.90
2023-09-13T15:50:26.155Z,8.52
2023-09-13T15:53:28.627Z,7.73
2023-09-13T15:56:32.734Z,7.47
2023-09-13T15:59:36.095Z,7.90
2023-09-13T16:02:38.627Z,7.90
2023-09-13T16:05:43.367Z,8.07
2023-09-13T16:08:46.036Z,7.80
2023-09-13T16:11:49.038Z,7.68
2023-09-13T16:14:51.562Z,7.30
2023-09-13T16:17:53.999Z,7.75
2023-09-13T16:20:56.423Z,8.07
2023-09-13T16:23:58.818Z,7.63
2023-09-13T16:27:01.179Z,7.65
2023-09-13T16:30:04.877Z,7.55
2023-09-13T16:33:07.301Z,7.55
2023-09-13T16:36:09.717Z,7.60
2023-09-13T16:39:14.126Z,8.00
2023-09-13T16:42:16.596Z,7.40
2023-09-13T16:45:23.784Z,8.45
2023-09-13T16:48:34.315Z,7.82
2023-09-13T16:51:37.652Z,7.80
2023-09-13T16:54:40.762Z,7.33
2023-09-13T16:57:43.235Z,8.00
2023-09-13T17:00:45.882Z,8.20
2023-09-13T17:03:49.927Z,8.02
2023-09-13T17:06:52.834Z,8.05
2023-09-13T17:09:55.347Z,8.37
2023-09-13T17:12:57.865Z,7.82
2023-09-13T17:16:00.394Z,8.20
2023-09-13T17:19:03.212Z,8.63
2023-09-13T17:22:05.810Z,7.85
2023-09-13T17:25:08.532Z,8.00
2023-09-13T17:28:10.999Z,8.05
2023-09-13T17:31:13.735Z,8.05
2023-09-13T17:34:16.190Z,7.97
2023-09-13T17:37:19.421Z,7.85
2023-09-13T17:40:21.914Z,8.03
2023-09-13T17:43:24.388Z,7.65
2023-09-13T17:46:26.954Z,7.40
2023-09-13T17:49:29.389Z,8.30
2023-09-13T17:52:31.785Z,7.68
2023-09-13T17:55:34.302Z,6.90
2023-09-13T17:58:36.715Z,7.35
2023-09-13T18:01:41.346Z,8.20
2023-09-13T18:04:44.076Z,7.55
2023-09-13T18:07:47.449Z,7.85
2023-09-13T18:10:49.862Z,7.73
2023-09-13T18:13:52.236Z,7.63
2023-09-13T18:16:55.701Z,7.90
2023-09-13T18:19:58.738Z,7.57
2023-09-13T18:23:01.209Z,8.48
2023-09-13T18:26:06.333Z,8.40
2023-09-13T18:29:08.756Z,8.55
2023-09-13T18:32:11.362Z,7.97
2023-09-13T18:35:13.897Z,7.75
2023-09-13T18:38:17.191Z,8.50
2023-09-13T18:41:19.724Z,7.83
2023-09-13T18:44:22.449Z,8.25
2023-09-13T18:47:25.738Z,8.40
2023-09-13T18:50:28.253Z,8.07
2023-09-13T18:53:30.922Z,9.00
2023-09-13T18:56:33.319Z,8.80
2023-09-13T18:59:38.474Z,8.77
2023-09-13T19:02:41.370Z,8.45
2023-09-13T19:05:43.830Z,8.57
2023-09-13T19:08:50.977Z,8.60
2023-09-13T19:11:54.849Z,8.47
2023-09-13T19:14:57.297Z,8.88
2023-09-13T19:17:59.729Z,9.55
2023-09-13T19:21:02.462Z,8.65
2023-09-13T19:24:05.220Z,9.40
2023-09-13T19:27:07.647Z,8.80
2023-09-13T19:30:10.668Z,9.40
2023-09-13T19:33:13.039Z,9.63
2023-09-13T19:36:15.461Z,9.20
2023-09-13T19:39:17.885Z,9.30
2023-09-13T19:42:20.300Z,8.10
2023-09-13T19:45:22.804Z,8.70
2023-09-13T19:48:26.271Z,9.23
2023-09-13T19:51:30.126Z,8.32
2023-09-13T19:54:32.746Z,9.05
2023-09-13T19:57:35.199Z,8.93
2023-09-13T20:00:37.640Z,9.05
2023-09-13T20:03:40.362Z,8.75
2023-09-13T20:06:43.448Z,8.85
2023-09-13T20:09:46.219Z,9.80
2023-09-13T20:12:48.728Z,9.07
2023-09-13T20:15:51.216Z,8.20
2023-09-13T20:18:53.706Z,8.07
2023-09-13T20:21:56.215Z,8.65
2023-09-13T20:24:59.131Z,8.57
2023-09-13T20:28:03.795Z,8.67
2023-09-13T20:31:06.719Z,8.60
2023-09-13T20:34:09.274Z,8.35
2023-09-13T20:37:11.784Z,8.43
2023-09-13T20:40:14.210Z,8.63
2023-09-13T20:43:16.657Z,8.27
2023-09-13T20:46:19.296Z,8.43
2023-09-13T20:49:21.744Z,8.48
2023-09-13T20:52:24.142Z,8.32
2023-09-13T20:55:26.637Z,7.63
2023-09-13T20:58:29.060Z,7.63
2023-09-13T21:01:31.518Z,7.43
2023-09-13T21:04:34.112Z,7.85
2023-09-13T21:07:36.522Z,7.70
2023-09-13T21:10:39.717Z,7.57
2023-09-13T21:13:42.139Z,7.70
2023-09-13T21:16:44.550Z,8.20
2023-09-13T21:19:47.067Z,8.18
2023-09-13T21:22:49.493Z,8.38
2023-09-13T21:25:52.648Z,7.63
2023-09-13T21:28:55.019Z,8.43
2023-09-13T21:31:57.468Z,7.43
2023-09-13T21:35:03.099Z,7.85
2023-09-13T21:38:05.949Z,8.35
2023-09-13T21:41:08.975Z,7.75
2023-09-13T21:44:11.411Z,7.67
2023-09-13T21:47:13.836Z,7.93
2023-09-13T21:50:16.334Z,7.63
2023-09-13T21:53:18.897Z,8.00
2023-09-13T21:56:21.346Z,7.70
2023-09-13T21:59:23.831Z,7.63
2023-09-13T22:02:27.065Z,7.60
2023-09-13T22:05:31.451Z,7.72
2023-09-13T22:08:33.965Z,7.65
2023-09-13T22:11:36.507Z,7.70
2023-09-13T22:14:39.061Z,7.73
2023-09-13T22:17:41.628Z,7.78
2023-09-13T22:20:44.118Z,7.68
2023-09-13T22:23:46.596Z,7.25
2023-09-13T22:26:49.261Z,8.05
2023-09-13T22:29:52.110Z,7.33
2023-09-13T22:32:54.613Z,7.68
2023-09-13T22:35:58.012Z,7.57
2023-09-13T22:39:08.902Z,7.10
2023-09-13T22:42:12.312Z,7.70
2023-09-13T22:45:15.003Z,7.53
2023-09-13T22:48:17.489Z,7.13
2023-09-13T22:51:20.050Z,7.70
2023-09-13T22:54:22.903Z,7.65
2023-09-13T22:57:25.472Z,8.07
2023-09-13T23:00:28.147Z,7.73
2023-09-13T23:03:43.881Z,7.88
2023-09-13T23:06:48.307Z,7.93
2023-09-13T23:09:50.883Z,8.50
2023-09-13T23:12:54.897Z,7.38
2023-09-13T23:16:06.145Z,7.63
2023-09-13T23:19:09.415Z,7.18
2023-09-13T23:22:11.812Z,6.78
2023-09-13T23:25:14.189Z,6.70
2023-09-13T23:28:16.613Z,7.53
2023-09-13T23:31:19.486Z,6.63
2023-09-13T23:34:22.038Z,7.18
2023-09-13T23:37:24.463Z,6.95
2023-09-13T23:40:26.854Z,7.10
2023-09-13T23:43:30.332Z,7.32
2023-09-13T23:46:32.853Z,6.87
2023-09-13T23:49:35.321Z,7.10
2023-09-13T23:52:37.700Z,7.63
2023-09-13T23:55:40.361Z,7.60
2023-09-13T23:58:42.765Z,7.60
